sensor_id;sensor_type;location;lat;lon;timestamp;pressure;altitude;pressure_sealevel;temperature;humidity
59375;BME280;45172;55.006;73.460;2022-10-31T00:01:33;100602.41;;;-7.33;nan
59375;BME280;45172;55.006;73.460;2022-10-31T00:04:05;100611.50;;;-7.37;nan
59375;BME280;45172;55.006;73.460;2022-10-31T00:06:31;100627.56;;;-7.39;nan
59375;BME280;45172;55.006;73.460;2022-10-31T00:08:59;100615.06;;;-7.45;nan
59375;BME280;45172;55.006;73.460;2022-10-31T00:11:29;100618.81;;;-7.41;nan
59375;BME280;45172;55.006;73.460;2022-10-31T00:13:57;100628.34;;;-7.40;nan
59375;BME280;45172;55.006;73.460;2022-10-31T00:16:33;100612.75;;;-7.42;nan
59375;BME280;45172;55.006;73.460;2022-10-31T00:19:01;100616.84;;;-7.44;nan
59375;BME280;45172;55.006;73.460;2022-10-31T00:21:28;100625.34;;;-7.45;nan
59375;BME280;45172;55.006;73.460;2022-10-31T00:23:55;100614.75;;;-7.48;nan
59375;BME280;45172;55.006;73.460;2022-10-31T00:26:32;100616.44;;;-7.49;nan
59375;BME280;45172;55.006;73.460;2022-10-31T00:28:58;100627.50;;;-7.50;nan
59375;BME280;45172;55.006;73.460;2022-10-31T00:31:24;100622.97;;;-7.52;nan
59375;BME280;45172;55.006;73.460;2022-10-31T00:33:50;100623.59;;;-7.55;nan
59375;BME280;45172;55.006;73.460;2022-10-31T00:36:18;100618.03;;;-7.60;nan
59375;BME280;45172;55.006;73.460;2022-10-31T00:38:54;100555.19;;;-8.00;nan
59375;BME280;45172;55.006;73.460;2022-10-31T00:41:21;100623.78;;;-7.62;nan
59375;BME280;45172;55.006;73.460;2022-10-31T00:43:52;100630.47;;;-7.64;nan
59375;BME280;45172;55.006;73.460;2022-10-31T00:46:18;100634.84;;;-7.63;nan
59375;BME280;45172;55.006;73.460;2022-10-31T00:48:54;100572.44;;;-8.08;nan
59375;BME280;45172;55.006;73.460;2022-10-31T00:51:21;100640.59;;;-7.66;nan
59375;BME280;45172;55.006;73.460;2022-10-31T00:53:47;100629.13;;;-7.70;nan
59375;BME280;45172;55.006;73.460;2022-10-31T00:56:13;100618.56;;;-7.73;nan
59375;BME280;45172;55.006;73.460;2022-10-31T00:58:39;100632.47;;;-7.71;nan
59375;BME280;45172;55.006;73.460;2022-10-31T01:01:05;100625.69;;;-7.79;nan
59375;BME280;45172;55.006;73.460;2022-10-31T01:03:32;100628.53;;;-7.76;nan
59375;BME280;45172;55.006;73.460;2022-10-31T01:06:10;100627.66;;;-7.76;nan
59375;BME280;45172;55.006;73.460;2022-10-31T01:08:37;100635.50;;;-7.75;nan
59375;BME280;45172;55.006;73.460;2022-10-31T01:11:16;100592.69;;;-8.02;nan
59375;BME280;45172;55.006;73.460;2022-10-31T01:13:43;100637.66;;;-7.79;nan
59375;BME280;45172;55.006;73.460;2022-10-31T01:16:15;100628.88;;;-7.81;nan
59375;BME280;45172;55.006;73.460;2022-10-31T01:18:41;100649.75;;;-7.78;nan
59375;BME280;45172;55.006;73.460;2022-10-31T01:21:13;100642.66;;;-7.81;nan
59375;BME280;45172;55.006;73.460;2022-10-31T01:23:39;100638.47;;;-7.89;nan
59375;BME280;45172;55.006;73.460;2022-10-31T01:26:21;100609.06;;;-8.11;nan
59375;BME280;45172;55.006;73.460;2022-10-31T01:28:56;100653.25;;;-7.87;nan
59375;BME280;45172;55.006;73.460;2022-10-31T01:31:24;100646.19;;;-7.89;nan
59375;BME280;45172;55.006;73.460;2022-10-31T01:33:51;100604.41;;;-8.15;nan
59375;BME280;45172;55.006;73.460;2022-10-31T01:36:21;100644.34;;;-7.90;nan
59375;BME280;45172;55.006;73.460;2022-10-31T01:38:52;100656.00;;;-7.94;nan
59375;BME280;45172;55.006;73.460;2022-10-31T01:41:22;100650.44;;;-7.99;nan
59375;BME280;45172;55.006;73.460;2022-10-31T01:43:55;100648.19;;;-7.95;nan
59375;BME280;45172;55.006;73.460;2022-10-31T01:46:33;100635.06;;;-8.07;nan
59375;BME280;45172;55.006;73.460;2022-10-31T01:49:02;100612.13;;;-8.23;nan
59375;BME280;45172;55.006;73.460;2022-10-31T01:51:33;100646.84;;;-8.01;nan
59375;BME280;45172;55.006;73.460;2022-10-31T01:54:04;100631.75;;;-8.15;nan
59375;BME280;45172;55.006;73.460;2022-10-31T01:56:33;100630.38;;;-8.12;nan
59375;BME280;45172;55.006;73.460;2022-10-31T01:59:01;100595.53;;;-8.36;nan
59375;BME280;45172;55.006;73.460;2022-10-31T02:01:28;100654.28;;;-8.04;nan
59375;BME280;45172;55.006;73.460;2022-10-31T02:03:55;100631.47;;;-8.18;nan
59375;BME280;45172;55.006;73.460;2022-10-31T02:06:44;100647.63;;;-8.11;nan
59375;BME280;45172;55.006;73.460;2022-10-31T02:09:17;100626.03;;;-8.21;nan
59375;BME280;45172;55.006;73.460;2022-10-31T02:11:59;100627.75;;;-8.31;nan
59375;BME280;45172;55.006;73.460;2022-10-31T02:14:28;100652.91;;;-8.09;nan
59375;BME280;45172;55.006;73.460;2022-10-31T02:16:55;100649.84;;;-8.05;nan
59375;BME280;45172;55.006;73.460;2022-10-31T02:25:42;100660.22;;;-7.86;nan
59375;BME280;45172;55.006;73.460;2022-10-31T02:31:35;100658.47;;;-7.67;nan
59375;BME280;45172;55.006;73.460;2022-10-31T02:36:57;100673.19;;;-7.47;nan
59375;BME280;45172;55.006;73.460;2022-10-31T02:39:27;100667.84;;;-7.40;nan
59375;BME280;45172;55.006;73.460;2022-10-31T02:42:16;100680.47;;;-7.24;nan
59375;BME280;45172;55.006;73.460;2022-10-31T02:44:51;100691.75;;;-7.13;nan
59375;BME280;45172;55.006;73.460;2022-10-31T02:47:25;100678.38;;;-7.09;nan
59375;BME280;45172;55.006;73.460;2022-10-31T02:50:10;100671.72;;;-7.07;nan
59375;BME280;45172;55.006;73.460;2022-10-31T02:52:37;100666.88;;;-6.93;nan
59375;BME280;45172;55.006;73.460;2022-10-31T02:58:05;100671.75;;;-6.77;nan
59375;BME280;45172;55.006;73.460;2022-10-31T03:00:41;100651.50;;;-6.83;nan
59375;BME280;45172;55.006;73.460;2022-10-31T03:03:19;100678.84;;;-6.55;nan
59375;BME280;45172;55.006;73.460;2022-10-31T03:06:05;100677.16;;;-6.55;nan
59375;BME280;45172;55.006;73.460;2022-10-31T03:11:23;100678.03;;;-6.35;nan
59375;BME280;45172;55.006;73.460;2022-10-31T03:14:06;100684.38;;;-6.31;nan
59375;BME280;45172;55.006;73.460;2022-10-31T03:16:45;100685.16;;;-6.22;nan
59375;BME280;45172;55.006;73.460;2022-10-31T03:19:17;100674.84;;;-6.22;nan
59375;BME280;45172;55.006;73.460;2022-10-31T03:24:41;100661.88;;;-6.13;nan
59375;BME280;45172;55.006;73.460;2022-10-31T03:27:11;100660.22;;;-6.02;nan
59375;BME280;45172;55.006;73.460;2022-10-31T03:29:44;100673.41;;;-5.89;nan
59375;BME280;45172;55.006;73.460;2022-10-31T03:32:22;100687.19;;;-5.78;nan
59375;BME280;45172;55.006;73.460;2022-10-31T03:34:51;100682.56;;;-5.72;nan
59375;BME280;45172;55.006;73.460;2022-10-31T03:37:20;100687.88;;;-5.70;nan
59375;BME280;45172;55.006;73.460;2022-10-31T03:39:48;100681.69;;;-5.62;nan
59375;BME280;45172;55.006;73.460;2022-10-31T03:42:26;100684.28;;;-5.52;nan
59375;BME280;45172;55.006;73.460;2022-10-31T03:45:11;100687.66;;;-5.42;nan
59375;BME280;45172;55.006;73.460;2022-10-31T03:50:08;100686.63;;;-5.34;nan
59375;BME280;45172;55.006;73.460;2022-10-31T03:52:36;100675.91;;;-5.28;nan
59375;BME280;45172;55.006;73.460;2022-10-31T03:55:10;100680.69;;;-5.23;nan
59375;BME280;45172;55.006;73.460;2022-10-31T03:58:11;100682.50;;;-5.11;nan
59375;BME280;45172;55.006;73.460;2022-10-31T04:00:40;100688.56;;;-5.11;nan
59375;BME280;45172;55.006;73.460;2022-10-31T04:03:26;100681.97;;;-5.07;nan
59375;BME280;45172;55.006;73.460;2022-10-31T04:05:55;100636.78;;;-5.33;nan
59375;BME280;45172;55.006;73.460;2022-10-31T04:08:26;100710.88;;;-4.90;nan
59375;BME280;45172;55.006;73.460;2022-10-31T04:10:56;100697.97;;;-4.90;nan
59375;BME280;45172;55.006;73.460;2022-10-31T04:13:26;100646.97;;;-5.14;nan
59375;BME280;45172;55.006;73.460;2022-10-31T04:15:55;100692.53;;;-4.83;nan
59375;BME280;45172;55.006;73.460;2022-10-31T04:18:25;100684.25;;;-4.79;nan
59375;BME280;45172;55.006;73.460;2022-10-31T04:21:06;100705.66;;;-4.59;nan
59375;BME280;45172;55.006;73.460;2022-10-31T04:23:37;100694.81;;;-4.55;nan
59375;BME280;45172;55.006;73.460;2022-10-31T04:26:03;100651.03;;;-4.74;nan
59375;BME280;45172;55.006;73.460;2022-10-31T04:28:30;100692.56;;;-4.40;nan
59375;BME280;45172;55.006;73.460;2022-10-31T04:30:56;100684.13;;;-4.37;nan
59375;BME280;45172;55.006;73.460;2022-10-31T04:33:22;100678.31;;;-4.35;nan
59375;BME280;45172;55.006;73.460;2022-10-31T04:35:48;100671.19;;;-4.27;nan
59375;BME280;45172;55.006;73.460;2022-10-31T04:38:14;100659.44;;;-4.34;nan
59375;BME280;45172;55.006;73.460;2022-10-31T04:40:40;100696.44;;;-4.13;nan
59375;BME280;45172;55.006;73.460;2022-10-31T04:43:06;100695.00;;;-4.09;nan
59375;BME280;45172;55.006;73.460;2022-10-31T04:45:32;100681.34;;;-4.18;nan
59375;BME280;45172;55.006;73.460;2022-10-31T04:47:58;100694.38;;;-4.06;nan
59375;BME280;45172;55.006;73.460;2022-10-31T04:50:24;100685.88;;;-3.93;nan
59375;BME280;45172;55.006;73.460;2022-10-31T04:53:00;100693.97;;;-3.78;nan
59375;BME280;45172;55.006;73.460;2022-10-31T04:55:26;100653.38;;;-3.90;nan
59375;BME280;45172;55.006;73.460;2022-10-31T04:57:52;100687.63;;;-3.60;nan
59375;BME280;45172;55.006;73.460;2022-10-31T05:00:20;100693.41;;;-3.52;nan
59375;BME280;45172;55.006;73.460;2022-10-31T05:02:47;100688.94;;;-3.42;nan
59375;BME280;45172;55.006;73.460;2022-10-31T05:05:15;100683.22;;;-3.38;nan
59375;BME280;45172;55.006;73.460;2022-10-31T05:07:47;100688.97;;;-3.31;nan
59375;BME280;45172;55.006;73.460;2022-10-31T05:10:17;100689.59;;;-3.23;nan
59375;BME280;45172;55.006;73.460;2022-10-31T05:12:48;100694.53;;;-3.14;nan
59375;BME280;45172;55.006;73.460;2022-10-31T05:15:15;100684.66;;;-3.08;nan
59375;BME280;45172;55.006;73.460;2022-10-31T05:17:42;100684.19;;;-3.02;nan
59375;BME280;45172;55.006;73.460;2022-10-31T05:20:09;100689.06;;;-2.95;nan
59375;BME280;45172;55.006;73.460;2022-10-31T05:22:35;100677.56;;;-2.86;nan
59375;BME280;45172;55.006;73.460;2022-10-31T05:25:08;100654.22;;;-2.98;nan
59375;BME280;45172;55.006;73.460;2022-10-31T05:27:34;100702.31;;;-2.68;nan
59375;BME280;45172;55.006;73.460;2022-10-31T05:30:00;100691.34;;;-2.64;nan
59375;BME280;45172;55.006;73.460;2022-10-31T05:32:25;100707.63;;;-2.42;nan
59375;BME280;45172;55.006;73.460;2022-10-31T05:34:51;100691.94;;;-2.44;nan
59375;BME280;45172;55.006;73.460;2022-10-31T05:37:17;100704.91;;;-2.32;nan
59375;BME280;45172;55.006;73.460;2022-10-31T05:39:43;100706.69;;;-2.31;nan
59375;BME280;45172;55.006;73.460;2022-10-31T05:42:09;100695.66;;;-2.40;nan
59375;BME280;45172;55.006;73.460;2022-10-31T05:44:35;100709.09;;;-2.34;nan
59375;BME280;45172;55.006;73.460;2022-10-31T05:47:01;100724.88;;;-2.31;nan
59375;BME280;45172;55.006;73.460;2022-10-31T05:49:28;100720.69;;;-2.29;nan
59375;BME280;45172;55.006;73.460;2022-10-31T05:51:54;100709.75;;;-2.25;nan
59375;BME280;45172;55.006;73.460;2022-10-31T05:54:29;100711.34;;;-2.15;nan
59375;BME280;45172;55.006;73.460;2022-10-31T05:56:55;100725.78;;;-2.07;nan
59375;BME280;45172;55.006;73.460;2022-10-31T05:59:21;100720.78;;;-2.03;nan
59375;BME280;45172;55.006;73.460;2022-10-31T06:01:48;100732.28;;;-2.00;nan
59375;BME280;45172;55.006;73.460;2022-10-31T06:04:24;100730.28;;;-1.92;nan
59375;BME280;45172;55.006;73.460;2022-10-31T06:06:56;100729.78;;;-1.86;nan
59375;BME280;45172;55.006;73.460;2022-10-31T06:09:32;100719.84;;;-1.80;nan
59375;BME280;45172;55.006;73.460;2022-10-31T06:11:58;100726.50;;;-1.72;nan
59375;BME280;45172;55.006;73.460;2022-10-31T06:14:34;100703.34;;;-1.81;nan
59375;BME280;45172;55.006;73.460;2022-10-31T06:17:00;100737.09;;;-1.69;nan
59375;BME280;45172;55.006;73.460;2022-10-31T06:19:26;100731.81;;;-1.82;nan
59375;BME280;45172;55.006;73.460;2022-10-31T06:21:56;100737.44;;;-1.76;nan
59375;BME280;45172;55.006;73.460;2022-10-31T06:24:22;100717.97;;;-1.95;nan
59375;BME280;45172;55.006;73.460;2022-10-31T06:26:48;100754.84;;;-1.87;nan
59375;BME280;45172;55.006;73.460;2022-10-31T06:29:14;100748.78;;;-1.99;nan
59375;BME280;45172;55.006;73.460;2022-10-31T06:31:40;100754.41;;;-1.93;nan
59375;BME280;45172;55.006;73.460;2022-10-31T06:34:06;100757.78;;;-1.94;nan
59375;BME280;45172;55.006;73.460;2022-10-31T06:36:32;100756.00;;;-1.95;nan
59375;BME280;45172;55.006;73.460;2022-10-31T06:39:08;100764.78;;;-1.93;nan
59375;BME280;45172;55.006;73.460;2022-10-31T06:41:34;100769.31;;;-1.90;nan
59375;BME280;45172;55.006;73.460;2022-10-31T06:44:02;100762.31;;;-1.91;nan
59375;BME280;45172;55.006;73.460;2022-10-31T06:46:28;100763.44;;;-2.00;nan
59375;BME280;45172;55.006;73.460;2022-10-31T06:48:55;100767.06;;;-1.98;nan
59375;BME280;45172;55.006;73.460;2022-10-31T06:51:20;100770.78;;;-2.06;nan
59375;BME280;45172;55.006;73.460;2022-10-31T06:56:12;100772.50;;;-2.07;nan
59375;BME280;45172;55.006;73.460;2022-10-31T06:58:43;100762.91;;;-2.08;nan
59375;BME280;45172;55.006;73.460;2022-10-31T07:06:01;100777.34;;;-2.11;nan
59375;BME280;45172;55.006;73.460;2022-10-31T07:10:55;100772.25;;;-2.10;nan
59375;BME280;45172;55.006;73.460;2022-10-31T07:13:23;100731.19;;;-2.27;nan
59375;BME280;45172;55.006;73.460;2022-10-31T07:15:58;100760.53;;;-2.04;nan
59375;BME280;45172;55.006;73.460;2022-10-31T07:18:25;100773.72;;;-2.01;nan
59375;BME280;45172;55.006;73.460;2022-10-31T07:20:52;100741.69;;;-2.14;nan
59375;BME280;45172;55.006;73.460;2022-10-31T07:23:22;100726.91;;;-2.15;nan
59375;BME280;45172;55.006;73.460;2022-10-31T07:25:56;100770.78;;;-1.94;nan
59375;BME280;45172;55.006;73.460;2022-10-31T07:28:27;100779.69;;;-1.90;nan
59375;BME280;45172;55.006;73.460;2022-10-31T07:30:55;100777.44;;;-1.98;nan
59375;BME280;45172;55.006;73.460;2022-10-31T07:33:31;100752.63;;;-2.06;nan
59375;BME280;45172;55.006;73.460;2022-10-31T07:36:08;100781.97;;;-1.95;nan
59375;BME280;45172;55.006;73.460;2022-10-31T07:38:33;100786.94;;;-1.98;nan
59375;BME280;45172;55.006;73.460;2022-10-31T07:40:59;100796.19;;;-2.02;nan
59375;BME280;45172;55.006;73.460;2022-10-31T07:43:25;100786.50;;;-2.04;nan
59375;BME280;45172;55.006;73.460;2022-10-31T07:45:52;100764.81;;;-2.17;nan
59375;BME280;45172;55.006;73.460;2022-10-31T07:48:20;100799.47;;;-1.93;nan
59375;BME280;45172;55.006;73.460;2022-10-31T07:50:56;100802.72;;;-1.95;nan
59375;BME280;45172;55.006;73.460;2022-10-31T07:53:22;100804.44;;;-1.96;nan
59375;BME280;45172;55.006;73.460;2022-10-31T08:05:43;100782.88;;;-2.07;nan
59375;BME280;45172;55.006;73.460;2022-10-31T08:08:12;100794.72;;;-1.98;nan
59375;BME280;45172;55.006;73.460;2022-10-31T08:10:39;100808.19;;;-2.04;nan
59375;BME280;45172;55.006;73.460;2022-10-31T08:18:06;100810.31;;;-1.98;nan
59375;BME280;45172;55.006;73.460;2022-10-31T08:48:57;100814.00;;;-1.59;nan
59375;BME280;45172;55.006;73.460;2022-10-31T08:51:23;100778.13;;;-1.76;nan
59375;BME280;45172;55.006;73.460;2022-10-31T08:53:59;100816.81;;;-1.56;nan
59375;BME280;45172;55.006;73.460;2022-10-31T08:56:25;100825.53;;;-1.55;nan
59375;BME280;45172;55.006;73.460;2022-10-31T08:59:01;100792.78;;;-1.77;nan
59375;BME280;45172;55.006;73.460;2022-10-31T09:01:27;100825.72;;;-1.52;nan
59375;BME280;45172;55.006;73.460;2022-10-31T09:03:53;100815.00;;;-1.57;nan
59375;BME280;45172;55.006;73.460;2022-10-31T09:06:22;100827.75;;;-1.48;nan
59375;BME280;45172;55.006;73.460;2022-10-31T09:11:14;100837.38;;;-1.47;nan
59375;BME280;45172;55.006;73.460;2022-10-31T09:13:42;100829.69;;;-1.45;nan
59375;BME280;45172;55.006;73.460;2022-10-31T09:16:15;100823.78;;;-1.43;nan
59375;BME280;45172;55.006;73.460;2022-10-31T09:18:41;100832.50;;;-1.42;nan
59375;BME280;45172;55.006;73.460;2022-10-31T09:21:07;100824.38;;;-1.47;nan
59375;BME280;45172;55.006;73.460;2022-10-31T09:23:34;100823.13;;;-1.52;nan
59375;BME280;45172;55.006;73.460;2022-10-31T09:26:00;100825.97;;;-1.49;nan
59375;BME280;45172;55.006;73.460;2022-10-31T09:28:26;100824.06;;;-1.63;nan
59375;BME280;45172;55.006;73.460;2022-10-31T09:30:57;100829.59;;;-1.71;nan
59375;BME280;45172;55.006;73.460;2022-10-31T09:51:07;100835.16;;;-1.78;nan
59375;BME280;45172;55.006;73.460;2022-10-31T09:56:01;100849.25;;;-1.74;nan
59375;BME280;45172;55.006;73.460;2022-10-31T09:58:41;100853.78;;;-1.72;nan
59375;BME280;45172;55.006;73.460;2022-10-31T11:52:44;100954.34;;;-3.06;nan
59375;BME280;45172;55.006;73.460;2022-10-31T12:03:18;100948.63;;;-3.02;nan
59375;BME280;45172;55.006;73.460;2022-10-31T12:08:29;100939.97;;;-3.03;nan
59375;BME280;45172;55.006;73.460;2022-10-31T12:11:23;100948.53;;;-3.04;nan
59375;BME280;45172;55.006;73.460;2022-10-31T12:50:56;100953.44;;;-3.39;nan
59375;BME280;45172;55.006;73.460;2022-10-31T13:06:27;100977.16;;;-3.45;nan
59375;BME280;45172;55.006;73.460;2022-10-31T13:09:17;100980.53;;;-3.46;nan
59375;BME280;45172;55.006;73.460;2022-10-31T13:11:49;100929.97;;;-3.74;nan
59375;BME280;45172;55.006;73.460;2022-10-31T13:16:55;100969.84;;;-3.61;nan
59375;BME280;45172;55.006;73.460;2022-10-31T13:19:36;100984.59;;;-3.60;nan
59375;BME280;45172;55.006;73.460;2022-10-31T13:22:13;100978.91;;;-3.66;nan
59375;BME280;45172;55.006;73.460;2022-10-31T13:24:59;100990.03;;;-3.67;nan
59375;BME280;45172;55.006;73.460;2022-10-31T13:30:12;100982.53;;;-3.75;nan
59375;BME280;45172;55.006;73.460;2022-10-31T13:32:53;100958.72;;;-3.91;nan
59375;BME280;45172;55.006;73.460;2022-10-31T13:38:19;100990.28;;;-3.75;nan
59375;BME280;45172;55.006;73.460;2022-10-31T13:40:57;100985.13;;;-3.75;nan
59375;BME280;45172;55.006;73.460;2022-10-31T13:43:53;100992.63;;;-3.78;nan
59375;BME280;45172;55.006;73.460;2022-10-31T13:48:59;101010.75;;;-3.78;nan
59375;BME280;45172;55.006;73.460;2022-10-31T13:51:28;101006.63;;;-3.76;nan
59375;BME280;45172;55.006;73.460;2022-10-31T13:56:29;100990.97;;;-3.88;nan
59375;BME280;45172;55.006;73.460;2022-10-31T13:59:14;100994.19;;;-3.80;nan
59375;BME280;45172;55.006;73.460;2022-10-31T14:01:48;100983.84;;;-3.90;nan
59375;BME280;45172;55.006;73.460;2022-10-31T14:04:29;100997.41;;;-3.82;nan
59375;BME280;45172;55.006;73.460;2022-10-31T14:07:05;101008.03;;;-3.79;nan
59375;BME280;45172;55.006;73.460;2022-10-31T14:09:35;101005.56;;;-3.78;nan
59375;BME280;45172;55.006;73.460;2022-10-31T14:12:13;101001.44;;;-3.86;nan
59375;BME280;45172;55.006;73.460;2022-10-31T14:14:50;100953.31;;;-4.05;nan
59375;BME280;45172;55.006;73.460;2022-10-31T14:17:25;100951.63;;;-4.04;nan
59375;BME280;45172;55.006;73.460;2022-10-31T14:22:39;101005.81;;;-3.64;nan
59375;BME280;45172;55.006;73.460;2022-10-31T14:25:30;100998.97;;;-3.64;nan
59375;BME280;45172;55.006;73.460;2022-10-31T14:28:40;101003.34;;;-3.63;nan
59375;BME280;45172;55.006;73.460;2022-10-31T14:31:43;101010.09;;;-3.65;nan
59375;BME280;45172;55.006;73.460;2022-10-31T14:34:36;101010.84;;;-3.66;nan
59375;BME280;45172;55.006;73.460;2022-10-31T14:40:33;101013.44;;;-3.66;nan
59375;BME280;45172;55.006;73.460;2022-10-31T14:43:35;101022.00;;;-3.67;nan
59375;BME280;45172;55.006;73.460;2022-10-31T14:49:39;101020.31;;;-3.66;nan
59375;BME280;45172;55.006;73.460;2022-10-31T14:52:13;100993.78;;;-3.85;nan
59375;BME280;45172;55.006;73.460;2022-10-31T14:54:45;100984.22;;;-3.86;nan
59375;BME280;45172;55.006;73.460;2022-10-31T14:57:24;101005.19;;;-3.72;nan
59375;BME280;45172;55.006;73.460;2022-10-31T15:00:03;101012.41;;;-3.68;nan
59375;BME280;45172;55.006;73.460;2022-10-31T15:02:38;101012.41;;;-3.68;nan
59375;BME280;45172;55.006;73.460;2022-10-31T15:05:08;101013.34;;;-3.67;nan
59375;BME280;45172;55.006;73.460;2022-10-31T15:07:35;101012.56;;;-3.66;nan
59375;BME280;45172;55.006;73.460;2022-10-31T15:10:36;101015.28;;;-3.65;nan
59375;BME280;45172;55.006;73.460;2022-10-31T15:13:24;101009.97;;;-3.66;nan
59375;BME280;45172;55.006;73.460;2022-10-31T15:15:52;101009.59;;;-3.71;nan
59375;BME280;45172;55.006;73.460;2022-10-31T15:18:23;101000.91;;;-3.72;nan
59375;BME280;45172;55.006;73.460;2022-10-31T15:20:51;101005.56;;;-3.67;nan
59375;BME280;45172;55.006;73.460;2022-10-31T15:23:26;101008.03;;;-3.69;nan
59375;BME280;45172;55.006;73.460;2022-10-31T15:26:00;101016.72;;;-3.68;nan
59375;BME280;45172;55.006;73.460;2022-10-31T15:28:31;101014.91;;;-3.69;nan
59375;BME280;45172;55.006;73.460;2022-10-31T15:30:59;101022.00;;;-3.67;nan
59375;BME280;45172;55.006;73.460;2022-10-31T15:33:42;101022.28;;;-3.64;nan
59375;BME280;45172;55.006;73.460;2022-10-31T15:36:20;101030.16;;;-3.62;nan
59375;BME280;45172;55.006;73.460;2022-10-31T15:38:48;101036.25;;;-3.62;nan
59375;BME280;45172;55.006;73.460;2022-10-31T15:44:31;101032.00;;;-3.61;nan
59375;BME280;45172;55.006;73.460;2022-10-31T15:47:02;101032.22;;;-3.58;nan
59375;BME280;45172;55.006;73.460;2022-10-31T15:49:53;101027.97;;;-3.58;nan
59375;BME280;45172;55.006;73.460;2022-10-31T15:52:30;100986.41;;;-3.80;nan
59375;BME280;45172;55.006;73.460;2022-10-31T15:55:05;101019.41;;;-3.56;nan
59375;BME280;45172;55.006;73.460;2022-10-31T15:57:47;100976.59;;;-3.84;nan
59375;BME280;45172;55.006;73.460;2022-10-31T16:03:04;101013.47;;;-3.55;nan
59375;BME280;45172;55.006;73.460;2022-10-31T16:05:43;101022.25;;;-3.53;nan
59375;BME280;45172;55.006;73.460;2022-10-31T16:08:44;101025.63;;;-3.54;nan
59375;BME280;45172;55.006;73.460;2022-10-31T16:11:23;101033.78;;;-3.60;nan
59375;BME280;45172;55.006;73.460;2022-10-31T16:14:02;101029.25;;;-3.63;nan
59375;BME280;45172;55.006;73.460;2022-10-31T16:16:32;101028.59;;;-3.71;nan
59375;BME280;45172;55.006;73.460;2022-10-31T16:19:00;101013.88;;;-3.82;nan
59375;BME280;45172;55.006;73.460;2022-10-31T16:21:33;101008.44;;;-3.85;nan
59375;BME280;45172;55.006;73.460;2022-10-31T16:24:13;101032.88;;;-3.81;nan
59375;BME280;45172;55.006;73.460;2022-10-31T16:26:41;101032.38;;;-3.88;nan
59375;BME280;45172;55.006;73.460;2022-10-31T16:29:41;101035.47;;;-3.92;nan
59375;BME280;45172;55.006;73.460;2022-10-31T16:32:29;101036.75;;;-3.97;nan
59375;BME280;45172;55.006;73.460;2022-10-31T16:37:39;101044.03;;;-4.03;nan
59375;BME280;45172;55.006;73.460;2022-10-31T16:40:05;101034.81;;;-4.10;nan
59375;BME280;45172;55.006;73.460;2022-10-31T16:42:32;101035.59;;;-4.11;nan
59375;BME280;45172;55.006;73.460;2022-10-31T16:44:58;101030.16;;;-4.14;nan
59375;BME280;45172;55.006;73.460;2022-10-31T16:47:25;101030.16;;;-4.14;nan
59375;BME280;45172;55.006;73.460;2022-10-31T16:49:51;101030.94;;;-4.15;nan
59375;BME280;45172;55.006;73.460;2022-10-31T16:52:17;101001.81;;;-4.33;nan
59375;BME280;45172;55.006;73.460;2022-10-31T16:54:43;101027.81;;;-4.21;nan
59375;BME280;45172;55.006;73.460;2022-10-31T16:57:22;101035.44;;;-4.23;nan
59375;BME280;45172;55.006;73.460;2022-10-31T16:59:52;101029.09;;;-4.27;nan
59375;BME280;45172;55.006;73.460;2022-10-31T17:02:21;101021.88;;;-4.31;nan
59375;BME280;45172;55.006;73.460;2022-10-31T17:04:57;101017.59;;;-4.30;nan
59375;BME280;45172;55.006;73.460;2022-10-31T17:07:23;101022.63;;;-4.32;nan
59375;BME280;45172;55.006;73.460;2022-10-31T17:09:54;101021.19;;;-4.38;nan
59375;BME280;45172;55.006;73.460;2022-10-31T17:12:22;101016.78;;;-4.50;nan
59375;BME280;45172;55.006;73.460;2022-10-31T17:14:50;101008.97;;;-4.60;nan
59375;BME280;45172;55.006;73.460;2022-10-31T17:17:22;101025.81;;;-4.55;nan
59375;BME280;45172;55.006;73.460;2022-10-31T17:19:48;101026.19;;;-4.61;nan
59375;BME280;45172;55.006;73.460;2022-10-31T17:22:15;101027.94;;;-4.70;nan
59375;BME280;45172;55.006;73.460;2022-10-31T17:24:48;101018.63;;;-4.78;nan
59375;BME280;45172;55.006;73.460;2022-10-31T17:27:15;101030.13;;;-4.75;nan
59375;BME280;45172;55.006;73.460;2022-10-31T17:29:46;101021.72;;;-4.83;nan
59375;BME280;45172;55.006;73.460;2022-10-31T17:32:13;101030.66;;;-4.79;nan
59375;BME280;45172;55.006;73.460;2022-10-31T17:34:39;101024.16;;;-4.84;nan
59375;BME280;45172;55.006;73.460;2022-10-31T17:37:05;101026.88;;;-4.83;nan
59375;BME280;45172;55.006;73.460;2022-10-31T17:39:32;101027.91;;;-4.91;nan
59375;BME280;45172;55.006;73.460;2022-10-31T17:41:58;100982.75;;;-5.24;nan
59375;BME280;45172;55.006;73.460;2022-10-31T17:44:24;101022.78;;;-5.10;nan
59375;BME280;45172;55.006;73.460;2022-10-31T17:46:50;101032.53;;;-5.16;nan
59375;BME280;45172;55.006;73.460;2022-10-31T17:49:16;101032.91;;;-5.22;nan
59375;BME280;45172;55.006;73.460;2022-10-31T17:51:42;101052.59;;;-5.14;nan
59375;BME280;45172;55.006;73.460;2022-10-31T17:54:15;101053.22;;;-5.16;nan
59375;BME280;45172;55.006;73.460;2022-10-31T17:56:43;101042.63;;;-5.19;nan
59375;BME280;45172;55.006;73.460;2022-10-31T17:59:14;101061.13;;;-5.15;nan
59375;BME280;45172;55.006;73.460;2022-10-31T18:01:40;101023.28;;;-5.33;nan
59375;BME280;45172;55.006;73.460;2022-10-31T18:04:06;101048.69;;;-5.19;nan
59375;BME280;45172;55.006;73.460;2022-10-31T18:06:32;101052.59;;;-5.14;nan
59375;BME280;45172;55.006;73.460;2022-10-31T18:09:02;101049.22;;;-5.13;nan
59375;BME280;45172;55.006;73.460;2022-10-31T18:11:28;101021.25;;;-5.27;nan
59375;BME280;45172;55.006;73.460;2022-10-31T18:13:55;101030.75;;;-5.17;nan
59375;BME280;45172;55.006;73.460;2022-10-31T18:16:21;101021.50;;;-5.24;nan
59375;BME280;45172;55.006;73.460;2022-10-31T18:18:52;101047.19;;;-5.06;nan
59375;BME280;45172;55.006;73.460;2022-10-31T18:21:19;101037.97;;;-5.13;nan
59375;BME280;45172;55.006;73.460;2022-10-31T18:23:45;101049.16;;;-5.04;nan
59375;BME280;45172;55.006;73.460;2022-10-31T18:26:13;101050.06;;;-5.03;nan